MMAS/AGU METAR and TAF weather

Enter ICAO airport designator
Station Type Date Time Source
MMAS METAR 2021/02/27 05:46 UTC NOAA

MMAS 270546Z 07006KT 10SM BKN200 15/M08 A3016 RMK SLP070 8/002


Station Type Date Time Source
MMAS Decoded METAR 2021/02/27 05:46 UTC NOAA

Aguascalientes, Ags., Mexico (MMAS) 21-53N 102-18W
Feb 27, 2021 - 12:46 AM EST / 2021.02.27 0546 UTC
Wind: from the ENE (070 degrees) at 7 MPH (6 KT):0
Visibility: 10 mile(s):0
Sky conditions: mostly cloudy
Temperature: 59 F (15 C)
Dew Point: 17 F (-8 C)
Relative Humidity: 19%
Pressure (altimeter): 30.16 in. Hg (1021 hPa)
ob: MMAS 270546Z 07006KT 10SM BKN200 15/M08 A3016 RMK SLP070 8/002
cycle: 6

Station Type Date Time Source
MMAS TAF 2021/02/27 06:49 UTC NOAA

TAF MMAS 270241Z 2706/2806 22005KT P6SM BKN250
FM271700 23010KT P6SM BKN250
FM280200 23005KT P6SM SCT250

Example: see airport list